createdAt,value
2019-02-16T00:01:21.370Z,102171.56
2019-02-16T00:03:50.945Z,102171.07
2019-02-16T00:06:20.487Z,102162.63
2019-02-16T00:08:50.045Z,102163.43
2019-02-16T00:11:19.818Z,102163.52
2019-02-16T00:13:49.385Z,102167.49
2019-02-16T00:16:18.985Z,102157.77
2019-02-16T00:18:48.622Z,102162.30
2019-02-16T00:21:18.155Z,102161.80
2019-02-16T00:23:47.699Z,102153.95
2019-02-16T00:26:17.278Z,102158.14
2019-02-16T00:28:47.023Z,102163.13
2019-02-16T00:31:16.650Z,102152.53
2019-02-16T00:33:46.204Z,102152.03
2019-02-16T00:36:15.746Z,102144.09
2019-02-16T00:38:45.354Z,102147.48
2019-02-16T00:41:14.919Z,102151.17
2019-02-16T00:43:44.458Z,102142.42
2019-02-16T00:46:14.012Z,102145.17
2019-02-16T00:48:43.609Z,102148.55
2019-02-16T00:51:13.994Z,102149.54
2019-02-16T00:53:43.807Z,102145.17
2019-02-16T00:56:13.349Z,102141.50
2019-02-16T00:58:42.888Z,102141.22
2019-02-16T01:01:12.472Z,102136.16
2019-02-16T01:03:42.093Z,102142.08
2019-02-16T01:06:11.662Z,102136.71
2019-02-16T01:08:41.264Z,102133.54
2019-02-16T01:11:10.810Z,102128.48
2019-02-16T01:13:40.377Z,102120.08
2019-02-16T01:16:09.912Z,102114.53
2019-02-16T01:18:39.604Z,102118.52
2019-02-16T01:21:09.220Z,102114.09
2019-02-16T01:23:38.830Z,102107.44
2019-02-16T01:26:08.396Z,102101.28
2019-02-16T01:28:37.933Z,102101.18
2019-02-16T01:31:07.953Z,102098.70
2019-02-16T01:33:37.494Z,102099.84
2019-02-16T01:36:07.055Z,102090.70
2019-02-16T01:38:36.602Z,102096.57
2019-02-16T01:41:06.163Z,102088.63
2019-02-16T01:43:35.733Z,102085.05
2019-02-16T01:46:05.410Z,102084.06
2019-02-16T01:48:34.954Z,102078.90
2019-02-16T01:51:04.607Z,102074.03
2019-02-16T01:53:34.159Z,102075.66
2019-02-16T01:56:03.831Z,102066.83
2019-02-16T01:58:33.548Z,102071.99
2019-02-16T02:01:03.092Z,102072.20
2019-02-16T02:03:32.659Z,102064.75
2019-02-16T02:06:02.211Z,102071.91
2019-02-16T02:08:33.833Z,102062.70
2019-02-16T02:11:03.941Z,102056.36
2019-02-16T02:13:33.628Z,102049.61
2019-02-16T02:16:03.265Z,102052.33
2019-02-16T02:18:32.810Z,102049.86
2019-02-16T02:21:02.487Z,102041.91
2019-02-16T02:23:32.100Z,102048.08
2019-02-16T02:26:01.638Z,102037.89
2019-02-16T02:28:31.211Z,102040.57
2019-02-16T02:31:00.754Z,102045.53
2019-02-16T02:33:30.341Z,102034.05
2019-02-16T02:35:59.878Z,102041.70
2019-02-16T02:38:29.427Z,102035.84
2019-02-16T02:40:59.007Z,102034.84
2019-02-16T02:43:28.894Z,102035.45
2019-02-16T02:45:58.526Z,102031.31
2019-02-16T02:48:28.077Z,102030.91
2019-02-16T02:50:57.652Z,102030.14
2019-02-16T02:53:30.981Z,102027.27
2019-02-16T02:55:58.467Z,102033.02
2019-02-16T02:58:28.042Z,102018.52
2019-02-16T03:00:57.882Z,102021.44
2019-02-16T03:03:27.460Z,102027.97
2019-02-16T03:05:57.002Z,102020.43
2019-02-16T03:08:26.565Z,102027.56
2019-02-16T03:10:56.141Z,102028.65
2019-02-16T03:13:25.693Z,102024.51
2019-02-16T03:15:55.272Z,102023.80
2019-02-16T03:18:24.839Z,102029.15
2019-02-16T03:20:54.436Z,102017.84
2019-02-16T03:23:24.103Z,102012.41
2019-02-16T03:26:28.589Z,102016.07
2019-02-16T03:29:05.558Z,102014.97
2019-02-16T03:32:05.632Z,102020.31
2019-02-16T03:34:54.901Z,102008.94
2019-02-16T03:37:52.927Z,102006.94
2019-02-16T03:40:22.677Z,102005.84
2019-02-16T03:42:52.215Z,102010.39
2019-02-16T03:45:21.760Z,102006.35
2019-02-16T03:47:51.326Z,102006.75
2019-02-16T03:50:20.883Z,102001.98
2019-02-16T03:52:50.440Z,102009.50
2019-02-16T03:55:19.993Z,102000.59
2019-02-16T03:57:49.741Z,101992.95
2019-02-16T04:00:19.288Z,101987.41
2019-02-16T04:02:48.856Z,101992.56
2019-02-16T04:05:18.411Z,101992.85
2019-02-16T04:07:48.078Z,101992.36
2019-02-16T04:10:17.760Z,101998.30
2019-02-16T04:12:47.317Z,101993.47
2019-02-16T04:15:16.863Z,101992.86
2019-02-16T04:17:46.428Z,101978.88
2019-02-16T04:20:15.977Z,101981.04
2019-02-16T04:22:45.557Z,101973.43
2019-02-16T04:25:15.100Z,101977.98
2019-02-16T04:27:44.650Z,101972.02
2019-02-16T04:30:14.219Z,101964.58
2019-02-16T04:32:43.842Z,101963.68
2019-02-16T04:35:13.437Z,101961.82
2019-02-16T04:37:43.006Z,101960.92
2019-02-16T04:40:12.548Z,101951.02
2019-02-16T04:42:42.410Z,101953.09
2019-02-16T04:45:12.025Z,101940.43
2019-02-16T04:47:41.603Z,101944.77
2019-02-16T04:50:11.278Z,101936.57
2019-02-16T04:52:40.832Z,101938.75
2019-02-16T04:55:10.413Z,101935.08
2019-02-16T04:57:39.962Z,101929.72
2019-02-16T05:00:10.486Z,101930.80
2019-02-16T05:02:40.022Z,101928.11
2019-02-16T05:05:10.278Z,101925.93
2019-02-16T05:07:39.830Z,101934.05
2019-02-16T05:10:09.726Z,101925.83
2019-02-16T05:12:39.293Z,101927.51
2019-02-16T05:15:10.268Z,101920.61
2019-02-16T05:17:39.837Z,101920.39
2019-02-16T05:20:09.377Z,101916.42
2019-02-16T05:22:44.570Z,101917.22
2019-02-16T05:25:10.303Z,101917.61
2019-02-16T05:27:39.866Z,101916.83
2019-02-16T05:30:09.950Z,101916.42
2019-02-16T05:32:39.537Z,101915.64
2019-02-16T05:35:09.248Z,101912.56
2019-02-16T05:37:38.803Z,101910.78
2019-02-16T05:40:09.710Z,101904.24
2019-02-16T05:42:39.253Z,101900.27
2019-02-16T05:45:09.859Z,101905.92
2019-02-16T05:47:39.403Z,101905.53
2019-02-16T05:50:09.137Z,101911.47
2019-02-16T05:52:38.864Z,101911.75
2019-02-16T05:55:08.858Z,101911.07
2019-02-16T05:57:38.409Z,101913.25
2019-02-16T06:00:11.956Z,101912.07
2019-02-16T06:02:41.492Z,101914.75
2019-02-16T06:05:11.047Z,101915.53
2019-02-16T06:07:40.803Z,101918.40
2019-02-16T06:10:10.522Z,101909.49
2019-02-16T06:12:40.079Z,101906.53
2019-02-16T06:15:10.759Z,101907.03
2019-02-16T06:17:40.312Z,101901.59
2019-02-16T06:20:10.227Z,101903.05
2019-02-16T06:22:39.814Z,101898.72
2019-02-16T06:25:09.447Z,101907.80
2019-02-16T06:27:39.085Z,101913.56
2019-02-16T06:30:09.939Z,101909.51
2019-02-16T06:32:39.498Z,101903.48
2019-02-16T06:35:22.832Z,101901.08
2019-02-16T06:37:52.379Z,101895.14
2019-02-16T06:40:21.947Z,101900.50
2019-02-16T06:42:51.633Z,101904.67
2019-02-16T06:45:21.159Z,101903.98
2019-02-16T06:47:50.706Z,101897.42
2019-02-16T06:50:20.431Z,101909.92
2019-02-16T06:52:49.976Z,101915.95
2019-02-16T06:55:19.536Z,101911.77
2019-02-16T06:57:50.577Z,101911.98
2019-02-16T07:00:23.509Z,101912.45
2019-02-16T07:02:53.272Z,101909.09
2019-02-16T07:05:22.850Z,101896.88
2019-02-16T07:07:52.401Z,101893.47
2019-02-16T07:10:21.983Z,101905.37
2019-02-16T07:12:51.538Z,101905.02
2019-02-16T07:15:21.070Z,101907.37
2019-02-16T07:17:52.365Z,101899.52
2019-02-16T07:20:22.468Z,101895.91
2019-02-16T07:22:52.098Z,101894.69
2019-02-16T07:25:21.659Z,101886.33
2019-02-16T07:27:51.294Z,101880.71
2019-02-16T07:30:20.838Z,101889.03
2019-02-16T07:32:50.415Z,101891.52
2019-02-16T07:35:19.972Z,101885.52
2019-02-16T07:37:49.533Z,101887.10
2019-02-16T07:40:19.111Z,101883.97
2019-02-16T07:42:52.972Z,101872.77
2019-02-16T07:45:36.503Z,101875.96
2019-02-16T07:48:19.678Z,101870.36
2019-02-16T07:50:50.864Z,101873.16
2019-02-16T07:53:31.310Z,101870.63
2019-02-16T07:56:01.957Z,101866.71
2019-02-16T07:58:33.327Z,101866.80
2019-02-16T08:01:02.635Z,101874.29
2019-02-16T08:03:33.869Z,101871.66
2019-02-16T08:06:03.177Z,101869.84
2019-02-16T08:08:52.197Z,101873.70
2019-02-16T08:11:39.482Z,101874.39
2019-02-16T08:14:10.738Z,101866.06
2019-02-16T08:16:56.684Z,101864.05
2019-02-16T08:19:27.872Z,101859.91
2019-02-16T08:22:13.626Z,101858.64
2019-02-16T08:25:00.327Z,101855.41
2019-02-16T08:27:43.421Z,101849.61
2019-02-16T08:30:25.064Z,101851.85
2019-02-16T08:32:56.253Z,101848.36
2019-02-16T08:35:43.561Z,101849.45
2019-02-16T08:38:30.797Z,101843.08
2019-02-16T08:41:05.179Z,101846.89
2019-02-16T08:43:42.221Z,101837.55
2019-02-16T08:46:28.883Z,101836.78
2019-02-16T08:49:18.232Z,101839.05
2019-02-16T08:51:52.053Z,101833.12
2019-02-16T08:54:25.624Z,101838.59
2019-02-16T08:56:56.786Z,101833.72
2019-02-16T08:59:35.106Z,101841.61
2019-02-16T09:02:11.775Z,101839.27
2019-02-16T09:04:58.765Z,101834.52
2019-02-16T09:07:38.795Z,101826.95
2019-02-16T09:10:13.057Z,101827.75
2019-02-16T09:12:46.967Z,101824.27
2019-02-16T09:15:24.460Z,101832.81
2019-02-16T09:18:10.716Z,101830.02
2019-02-16T09:20:47.629Z,101823.13
2019-02-16T09:23:23.263Z,101821.39
2019-02-16T09:25:55.226Z,101820.27
2019-02-16T09:28:26.958Z,101821.91
2019-02-16T09:31:04.321Z,101822.88
2019-02-16T09:33:44.932Z,101825.11
2019-02-16T09:36:18.671Z,101821.45
2019-02-16T09:39:01.458Z,101820.03
2019-02-16T09:41:35.133Z,101822.06
2019-02-16T09:44:06.308Z,101819.80
2019-02-16T09:46:40.209Z,101825.09
2019-02-16T09:49:14.071Z,101824.05
2019-02-16T09:51:45.251Z,101830.05
2019-02-16T09:54:16.425Z,101831.73
2019-02-16T09:56:56.467Z,101821.81
2019-02-16T09:59:42.660Z,101825.31
2019-02-16T10:02:13.840Z,101815.42
2019-02-16T10:04:45.023Z,101826.23
2019-02-16T10:07:26.038Z,101822.27
2019-02-16T10:09:57.318Z,101820.47
2019-02-16T10:12:35.155Z,101825.63
2019-02-16T10:15:10.937Z,101828.73
2019-02-16T10:17:48.078Z,101825.70
2019-02-16T10:20:27.823Z,101823.74
2019-02-16T10:23:09.158Z,101828.38
2019-02-16T10:25:56.246Z,101818.52
2019-02-16T10:28:42.738Z,101816.66
2019-02-16T10:31:12.062Z,101815.64
2019-02-16T10:33:46.421Z,101808.31
2019-02-16T10:36:20.441Z,101802.37
2019-02-16T10:38:51.615Z,101802.62
2019-02-16T10:41:34.805Z,101801.94
2019-02-16T10:44:05.988Z,101804.04
2019-02-16T10:46:37.140Z,101806.13
2019-02-16T10:49:20.681Z,101801.31
2019-02-16T10:51:51.859Z,101793.73
2019-02-16T10:54:34.690Z,101792.89
2019-02-16T10:57:17.993Z,101787.66
2019-02-16T11:00:05.314Z,101781.91
2019-02-16T11:02:43.414Z,101778.27
2019-02-16T11:05:17.325Z,101775.38
2019-02-16T11:07:51.374Z,101782.13
2019-02-16T11:10:22.550Z,101778.77
2019-02-16T11:12:56.419Z,101770.92
2019-02-16T11:15:39.538Z,101761.30
2019-02-16T11:18:27.199Z,101774.59
2019-02-16T11:21:04.248Z,101775.53
2019-02-16T11:23:51.721Z,101781.23
2019-02-16T11:26:28.599Z,101779.11
2019-02-16T11:29:15.613Z,101783.14
2019-02-16T11:31:48.135Z,101782.26
2019-02-16T11:34:26.265Z,101784.36
2019-02-16T11:36:57.442Z,101782.05
2019-02-16T11:39:44.759Z,101782.72
2019-02-16T11:42:31.513Z,101779.48
2019-02-16T11:45:08.630Z,101788.85
2019-02-16T11:47:55.768Z,101780.58
2019-02-16T11:50:38.908Z,101777.24
2019-02-16T11:53:24.706Z,101782.23
2019-02-16T11:56:06.160Z,101778.46
2019-02-16T11:58:55.895Z,101774.30
2019-02-16T12:01:42.265Z,101767.93
2019-02-16T12:04:29.777Z,101763.42
2019-02-16T12:07:00.919Z,101764.67
2019-02-16T12:09:48.024Z,101764.56
2019-02-16T12:12:19.181Z,101755.73
2019-02-16T12:14:50.347Z,101751.34
2019-02-16T12:17:36.419Z,101760.94
2019-02-16T12:20:10.292Z,101759.59
2019-02-16T12:22:41.483Z,101760.48
2019-02-16T12:25:15.404Z,101762.70
2019-02-16T12:27:44.685Z,101763.61
2019-02-16T12:30:15.872Z,101758.83
2019-02-16T12:32:53.031Z,101756.71
2019-02-16T12:35:35.764Z,101749.36
2019-02-16T12:38:06.925Z,101751.58
2019-02-16T12:40:40.758Z,101755.64
2019-02-16T12:43:11.942Z,101758.34
2019-02-16T12:45:58.475Z,101753.61
2019-02-16T12:48:29.633Z,101746.23
2019-02-16T12:51:00.809Z,101737.53
2019-02-16T12:53:41.888Z,101748.53
2019-02-16T12:56:27.886Z,101747.70
2019-02-16T12:59:16.869Z,101743.77
2019-02-16T13:01:48.022Z,101747.34
2019-02-16T13:04:24.677Z,101738.20
2019-02-16T13:07:05.695Z,101734.76
2019-02-16T13:09:48.832Z,101731.28
2019-02-16T13:12:31.892Z,101737.87
2019-02-16T13:15:03.923Z,101734.40
2019-02-16T13:17:46.828Z,101739.28
2019-02-16T13:20:21.886Z,101734.52
2019-02-16T13:22:51.189Z,101728.86
2019-02-16T13:25:24.669Z,101726.70
2019-02-16T13:28:04.206Z,101732.41
2019-02-16T13:30:41.150Z,101734.17
2019-02-16T13:33:13.183Z,101727.63
2019-02-16T13:36:00.646Z,101721.06
2019-02-16T13:38:50.167Z,101716.27
2019-02-16T13:41:28.331Z,101705.77
2019-02-16T13:44:05.676Z,101704.45
2019-02-16T13:46:39.823Z,101700.94
2019-02-16T13:49:16.871Z,101700.53
2019-02-16T13:52:02.809Z,101692.64
2019-02-16T13:54:39.822Z,101692.19
2019-02-16T13:57:10.991Z,101688.26
2019-02-16T13:59:42.145Z,101684.77
2019-02-16T14:02:19.441Z,101681.27
2019-02-16T14:05:05.685Z,101677.32
2019-02-16T14:07:55.057Z,101676.92
2019-02-16T14:10:31.975Z,101670.80
2019-02-16T14:13:05.816Z,101672.09
2019-02-16T14:15:42.765Z,101672.53
2019-02-16T14:18:12.308Z,101665.50
2019-02-16T14:20:41.903Z,101667.70
2019-02-16T14:23:11.427Z,101665.91
2019-02-16T14:25:45.843Z,101662.84
2019-02-16T14:28:15.468Z,101669.43
2019-02-16T14:30:45.071Z,101660.19
2019-02-16T14:33:14.598Z,101661.95
2019-02-16T14:35:44.262Z,101661.07
2019-02-16T14:38:15.421Z,101664.12
2019-02-16T14:40:44.955Z,101666.31
2019-02-16T14:43:14.469Z,101656.16
2019-02-16T14:45:43.984Z,101656.10
2019-02-16T14:48:13.659Z,101656.06
2019-02-16T14:50:43.170Z,101656.87
2019-02-16T14:53:12.693Z,101653.33
2019-02-16T14:55:42.281Z,101644.48
2019-02-16T14:58:11.798Z,101654.94
2019-02-16T15:00:41.312Z,101657.97
2019-02-16T15:03:10.852Z,101653.49
2019-02-16T15:05:40.388Z,101648.61
2019-02-16T15:08:09.939Z,101649.89
2019-02-16T15:10:39.577Z,101649.38
2019-02-16T15:13:09.097Z,101648.41
2019-02-16T15:15:38.623Z,101649.16
2019-02-16T15:18:08.575Z,101652.16
2019-02-16T15:20:38.148Z,101643.74
2019-02-16T15:23:07.609Z,101643.23
2019-02-16T15:25:37.567Z,101638.29
2019-02-16T15:28:07.081Z,101637.75
2019-02-16T15:30:36.593Z,101633.67
2019-02-16T15:33:06.153Z,101632.29
2019-02-16T15:35:35.653Z,101630.47
2019-02-16T15:38:05.272Z,101636.95
2019-02-16T15:40:34.787Z,101629.84
2019-02-16T15:43:04.308Z,101631.89
2019-02-16T15:45:33.908Z,101631.30
2019-02-16T15:48:03.542Z,101625.50
2019-02-16T15:50:33.065Z,101624.42
2019-02-16T15:53:02.589Z,101630.34
2019-02-16T15:55:32.231Z,101626.66
2019-02-16T15:58:01.778Z,101618.20
2019-02-16T16:00:31.319Z,101624.14
2019-02-16T16:03:00.883Z,101621.80
2019-02-16T16:05:30.385Z,101619.87
2019-02-16T16:08:19.398Z,101621.88
2019-02-16T16:10:50.577Z,101617.33
2019-02-16T16:13:30.942Z,101613.20
2019-02-16T16:16:02.104Z,101611.69
2019-02-16T16:18:39.046Z,101619.72
2019-02-16T16:21:19.196Z,101622.12
2019-02-16T16:24:08.772Z,101627.52
2019-02-16T16:26:42.716Z,101624.57
2019-02-16T16:29:16.566Z,101623.03
2019-02-16T16:31:50.257Z,101628.53
2019-02-16T16:34:24.737Z,101625.30
2019-02-16T16:36:58.593Z,101624.63
2019-02-16T16:39:29.744Z,101630.03
2019-02-16T16:42:00.917Z,101630.17
2019-02-16T16:44:34.737Z,101634.72
2019-02-16T16:47:17.989Z,101638.41
2019-02-16T16:50:03.929Z,101634.28
2019-02-16T16:52:37.986Z,101631.91
2019-02-16T16:55:17.907Z,101627.81
2019-02-16T16:57:52.036Z,101632.53
2019-02-16T17:00:29.197Z,101644.19
2019-02-16T17:03:04.258Z,101649.09
2019-02-16T17:05:47.368Z,101642.61
2019-02-16T17:08:21.286Z,101648.42
2019-02-16T17:10:52.450Z,101647.30
2019-02-16T17:13:41.498Z,101654.05
2019-02-16T17:16:27.524Z,101652.98
2019-02-16T17:19:04.643Z,101651.09
2019-02-16T17:21:41.287Z,101653.97
2019-02-16T17:24:15.213Z,101649.91
2019-02-16T17:26:46.332Z,101647.19
2019-02-16T17:29:17.546Z,101646.16
2019-02-16T17:31:51.440Z,101646.94
2019-02-16T17:34:22.589Z,101647.25
2019-02-16T17:36:58.143Z,101645.69
2019-02-16T17:39:29.303Z,101640.69
2019-02-16T17:42:06.333Z,101644.48
2019-02-16T17:44:37.500Z,101650.06
2019-02-16T17:47:08.655Z,101651.27
2019-02-16T17:50:01.845Z,101648.60
2019-02-16T17:52:51.187Z,101653.30
2019-02-16T17:55:37.392Z,101657.45
2019-02-16T17:58:11.375Z,101653.43
2019-02-16T18:00:45.209Z,101654.52
2019-02-16T18:03:18.998Z,101655.17
2019-02-16T18:05:59.176Z,101651.00
2019-02-16T18:08:30.439Z,101655.61
2019-02-16T18:11:17.812Z,101654.56
2019-02-16T18:13:57.960Z,101665.27
2019-02-16T18:16:29.139Z,101644.20
2019-02-16T18:19:06.023Z,101652.33
2019-02-16T18:21:43.253Z,101651.72
2019-02-16T18:24:14.441Z,101648.48
2019-02-16T18:26:56.090Z,101649.61
2019-02-16T18:29:26.601Z,101655.93
2019-02-16T18:32:13.522Z,101650.08
2019-02-16T18:35:01.124Z,101660.67
2019-02-16T18:37:35.458Z,101652.67
2019-02-16T18:40:05.776Z,101654.57
2019-02-16T18:42:40.767Z,101656.91
2019-02-16T18:45:14.657Z,101661.47
2019-02-16T18:48:01.622Z,101658.27
2019-02-16T18:50:48.029Z,101665.13
2019-02-16T18:53:35.533Z,101659.39
2019-02-16T18:56:16.899Z,101660.98
2019-02-16T18:58:48.692Z,101665.59
2019-02-16T19:01:25.549Z,101669.82
2019-02-16T19:03:59.984Z,101663.14
2019-02-16T19:06:31.154Z,101666.91
2019-02-16T19:09:12.565Z,101665.55
2019-02-16T19:11:43.717Z,101662.12
2019-02-16T19:14:17.718Z,101656.04
2019-02-16T19:17:01.299Z,101650.02
2019-02-16T19:19:35.198Z,101657.46
2019-02-16T19:22:21.053Z,101671.77
2019-02-16T19:24:57.808Z,101668.16
2019-02-16T19:27:44.721Z,101660.64
2019-02-16T19:30:25.416Z,101659.61
2019-02-16T19:33:05.525Z,101654.98
2019-02-16T19:35:48.723Z,101650.94
2019-02-16T19:38:25.207Z,101664.22
2019-02-16T19:41:01.688Z,101663.14
2019-02-16T19:43:32.834Z,101658.70
2019-02-16T19:46:12.547Z,101660.35
2019-02-16T19:48:49.700Z,101656.36
2019-02-16T19:51:26.398Z,101662.73
2019-02-16T19:53:57.562Z,101659.53
2019-02-16T19:56:31.491Z,101659.81
2019-02-16T19:59:20.807Z,101656.30
2019-02-16T20:01:52.576Z,101658.03
2019-02-16T20:04:26.486Z,101652.02
2019-02-16T20:07:13.674Z,101649.42
2019-02-16T20:09:44.867Z,101648.50
2019-02-16T20:12:32.063Z,101653.98
2019-02-16T20:15:19.724Z,101654.27
2019-02-16T20:17:54.525Z,101659.27
2019-02-16T20:20:26.867Z,101659.58
2019-02-16T20:23:14.038Z,101658.56
2019-02-16T20:25:45.599Z,101667.94
2019-02-16T20:28:19.349Z,101663.91
2019-02-16T20:30:50.588Z,101665.55
2019-02-16T20:33:24.271Z,101673.00
2019-02-16T20:36:11.460Z,101666.50
2019-02-16T20:38:42.681Z,101669.10
2019-02-16T20:41:16.672Z,101669.52
2019-02-16T20:43:47.887Z,101665.14
2019-02-16T20:46:31.010Z,101666.09
2019-02-16T20:49:08.172Z,101661.31
2019-02-16T20:51:45.547Z,101663.91
2019-02-16T20:54:22.609Z,101666.44
2019-02-16T20:56:59.841Z,101665.08
2019-02-16T20:59:37.055Z,101661.08
2019-02-16T21:02:06.327Z,101658.35
2019-02-16T21:04:38.276Z,101659.04
2019-02-16T21:07:12.135Z,101657.95
2019-02-16T21:09:45.742Z,101662.56
2019-02-16T21:12:19.739Z,101662.77
2019-02-16T21:14:56.668Z,101661.41
2019-02-16T21:17:25.982Z,101663.59
2019-02-16T21:19:59.564Z,101665.98
2019-02-16T21:22:33.926Z,101665.41
2019-02-16T21:25:10.586Z,101669.64
2019-02-16T21:27:44.491Z,101669.91
2019-02-16T21:30:18.616Z,101668.34
2019-02-16T21:32:50.177Z,101664.69
2019-02-16T21:35:26.970Z,101658.81
2019-02-16T21:37:58.286Z,101665.16
2019-02-16T21:40:30.248Z,101661.98
2019-02-16T21:42:59.594Z,101669.55
2019-02-16T21:45:47.618Z,101670.70
2019-02-16T21:48:24.578Z,101665.34
2019-02-16T21:51:11.915Z,101664.58
2019-02-16T21:53:46.186Z,101672.15
2019-02-16T21:56:17.389Z,101673.27
2019-02-16T21:58:52.107Z,101672.23
2019-02-16T22:01:29.148Z,101672.09
2019-02-16T22:04:03.121Z,101674.46
2019-02-16T22:06:50.639Z,101676.53
2019-02-16T22:09:37.727Z,101675.91
2019-02-16T22:12:20.506Z,101673.98
2019-02-16T22:14:50.044Z,101673.24
2019-02-16T22:17:19.605Z,101673.36
2019-02-16T22:19:49.119Z,101669.58
2019-02-16T22:22:18.675Z,101681.05
2019-02-16T22:24:48.203Z,101674.80
2019-02-16T22:27:17.750Z,101666.88
2019-02-16T22:29:47.263Z,101671.09
2019-02-16T22:32:16.853Z,101664.91
2019-02-16T22:34:46.374Z,101673.74
2019-02-16T22:37:15.902Z,101677.48
2019-02-16T22:39:45.645Z,101680.73
2019-02-16T22:42:15.160Z,101677.13
2019-02-16T22:44:44.734Z,101670.91
2019-02-16T22:47:14.266Z,101681.59
2019-02-16T22:49:44.207Z,101688.88
2019-02-16T22:52:13.839Z,101681.52
2019-02-16T22:54:43.419Z,101687.74
2019-02-16T22:57:12.961Z,101686.04
2019-02-16T22:59:43.496Z,101687.41
2019-02-16T23:02:14.053Z,101688.70
2019-02-16T23:04:43.597Z,101693.33
2019-02-16T23:07:13.145Z,101691.88
2019-02-16T23:09:42.657Z,101694.72
2019-02-16T23:12:12.202Z,101698.41
2019-02-16T23:14:41.708Z,101694.69
2019-02-16T23:17:11.266Z,101705.30
2019-02-16T23:19:40.781Z,101698.63
2019-02-16T23:22:10.527Z,101704.45
2019-02-16T23:24:40.043Z,101702.59
2019-02-16T23:27:09.645Z,101697.74
2019-02-16T23:29:39.272Z,101704.13
2019-02-16T23:32:08.794Z,101709.11
2019-02-16T23:34:38.332Z,101705.88
2019-02-16T23:37:07.941Z,101697.47
2019-02-16T23:39:37.479Z,101695.12
2019-02-16T23:42:07.019Z,101701.78
2019-02-16T23:44:36.537Z,101700.25
2019-02-16T23:47:06.079Z,101702.19
2019-02-16T23:49:35.634Z,101699.44
2019-02-16T23:52:05.197Z,101700.25
2019-02-16T23:54:34.722Z,101700.93
2019-02-16T23:57:04.389Z,101709.09
2019-02-16T23:59:33.911Z,101713.86
